createdAt,value
2023-03-03T00:01:20.888Z,20.20
2023-03-03T00:03:47.604Z,20.02
2023-03-03T00:06:15.119Z,18.40
2023-03-03T00:08:42.031Z,17.80
2023-03-03T00:11:09.514Z,19.10
2023-03-03T00:13:53.200Z,19.33
2023-03-03T00:16:35.495Z,18.63
2023-03-03T00:19:02.348Z,18.27
2023-03-03T00:21:32.262Z,22.98
2023-03-03T00:24:14.269Z,19.30
2023-03-03T00:26:44.469Z,15.10
2023-03-03T00:29:35.618Z,17.17
2023-03-03T00:32:22.865Z,19.33
2023-03-03T00:34:51.233Z,18.63
2023-03-03T00:37:27.299Z,16.42
2023-03-03T00:39:54.136Z,14.73
2023-03-03T00:42:20.844Z,16.52
2023-03-03T00:44:48.415Z,13.73
2023-03-03T00:47:29.351Z,15.95
2023-03-03T00:50:25.442Z,14.80
2023-03-03T00:53:06.990Z,17.35
2023-03-03T00:55:34.940Z,17.38
2023-03-03T00:58:02.347Z,17.15
2023-03-03T01:00:29.207Z,17.73
2023-03-03T01:02:56.148Z,20.70
2023-03-03T01:05:24.189Z,17.98
2023-03-03T01:07:50.890Z,15.80
2023-03-03T01:10:17.880Z,19.38
2023-03-03T01:12:44.897Z,18.35
2023-03-03T01:15:14.165Z,19.67
2023-03-03T01:17:41.568Z,17.80
2023-03-03T01:20:11.655Z,19.35
2023-03-03T01:22:38.514Z,21.80
2023-03-03T01:25:06.022Z,20.25
2023-03-03T01:27:32.790Z,20.65
2023-03-03T01:29:59.640Z,24.15
2023-03-03T01:32:27.524Z,21.25
2023-03-03T01:34:54.826Z,25.10
2023-03-03T01:37:21.627Z,20.85
2023-03-03T01:39:50.205Z,21.85
2023-03-03T01:42:17.271Z,24.13
2023-03-03T01:44:44.320Z,24.50
2023-03-03T01:47:18.979Z,22.65
2023-03-03T01:50:04.202Z,23.83
2023-03-03T01:52:36.194Z,24.98
2023-03-03T01:55:10.051Z,24.98
2023-03-03T01:57:42.156Z,26.98
2023-03-03T02:00:10.359Z,24.10
2023-03-03T02:02:37.448Z,24.25
2023-03-03T02:05:04.344Z,24.63
2023-03-03T02:07:32.307Z,26.52
2023-03-03T02:10:07.973Z,24.15
2023-03-03T02:12:44.138Z,26.35
2023-03-03T02:15:18.262Z,26.83
2023-03-03T02:17:45.861Z,26.73
2023-03-03T02:20:19.125Z,23.15
2023-03-03T02:22:55.352Z,24.98
2023-03-03T02:25:36.784Z,26.05
2023-03-03T02:28:03.765Z,25.67
2023-03-03T02:30:30.554Z,23.33
2023-03-03T02:32:57.409Z,24.83
2023-03-03T02:35:37.264Z,23.17
2023-03-03T02:38:14.979Z,26.70
2023-03-03T02:40:52.054Z,28.63
2023-03-03T02:43:21.037Z,23.33
2023-03-03T02:45:47.811Z,23.83
2023-03-03T02:48:14.525Z,28.67
2023-03-03T02:50:41.190Z,24.70
2023-03-03T02:53:07.877Z,22.88
2023-03-03T02:55:34.545Z,24.13
2023-03-03T02:58:01.259Z,25.75
2023-03-03T03:00:27.939Z,24.60
2023-03-03T03:02:54.606Z,25.35
2023-03-03T03:05:21.265Z,27.63
2023-03-03T03:07:47.995Z,25.85
2023-03-03T03:10:15.258Z,25.42
2023-03-03T03:12:41.941Z,25.75
2023-03-03T03:15:10.000Z,24.15
2023-03-03T03:17:40.086Z,26.65
2023-03-03T03:20:07.152Z,26.73
2023-03-03T03:22:34.441Z,28.75
2023-03-03T03:25:01.119Z,28.88
2023-03-03T03:27:27.938Z,26.00
2023-03-03T03:29:54.610Z,23.80
2023-03-03T03:32:21.345Z,25.63
2023-03-03T03:34:48.124Z,25.42
2023-03-03T03:37:15.466Z,28.50
2023-03-03T03:39:42.344Z,28.33
2023-03-03T03:42:09.050Z,25.98
2023-03-03T03:44:35.723Z,22.98
2023-03-03T03:47:02.463Z,26.42
2023-03-03T03:49:29.285Z,29.33
2023-03-03T03:51:56.084Z,23.60
2023-03-03T03:54:22.825Z,26.65
2023-03-03T03:56:49.653Z,24.08
2023-03-03T03:59:16.371Z,23.35
2023-03-03T04:01:43.349Z,24.88
2023-03-03T04:04:10.094Z,26.38
2023-03-03T04:06:36.872Z,24.48
2023-03-03T04:09:04.022Z,24.65
2023-03-03T04:11:30.962Z,24.58
2023-03-03T04:13:57.672Z,25.95
2023-03-03T04:16:24.873Z,27.70
2023-03-03T04:18:51.604Z,26.92
2023-03-03T04:21:18.461Z,27.73
2023-03-03T04:23:45.179Z,24.65
2023-03-03T04:26:11.996Z,24.42
2023-03-03T04:28:38.704Z,19.77
2023-03-03T04:31:05.533Z,22.42
2023-03-03T04:33:32.339Z,21.13
2023-03-03T04:35:59.220Z,23.00
2023-03-03T04:38:26.265Z,25.40
2023-03-03T04:40:53.089Z,20.00
2023-03-03T04:43:19.916Z,22.70
2023-03-03T04:45:46.665Z,22.10
2023-03-03T04:48:13.397Z,23.83
2023-03-03T04:50:40.067Z,22.88
2023-03-03T04:53:06.746Z,23.35
2023-03-03T04:55:35.666Z,21.30
2023-03-03T04:58:02.428Z,22.48
2023-03-03T05:00:29.088Z,21.70
2023-03-03T05:02:55.822Z,26.10
2023-03-03T05:05:22.485Z,23.58
2023-03-03T05:07:49.174Z,22.85
2023-03-03T05:10:15.914Z,22.55
2023-03-03T05:12:43.453Z,21.38
2023-03-03T05:15:10.852Z,22.17
2023-03-03T05:17:37.607Z,20.08
2023-03-03T05:20:08.412Z,15.32
2023-03-03T05:22:35.116Z,21.02
2023-03-03T05:25:01.794Z,17.30
2023-03-03T05:27:28.470Z,15.73
2023-03-03T05:29:55.481Z,15.15
2023-03-03T05:32:22.261Z,19.33
2023-03-03T05:34:49.119Z,18.42
2023-03-03T05:37:16.180Z,16.63
2023-03-03T05:39:44.605Z,19.92
2023-03-03T05:42:13.113Z,17.90
2023-03-03T05:44:39.814Z,17.42
2023-03-03T05:47:06.557Z,17.48
2023-03-03T05:49:33.336Z,17.00
2023-03-03T05:52:00.447Z,19.00
2023-03-03T05:54:27.341Z,16.83
2023-03-03T05:56:54.037Z,18.20
2023-03-03T05:59:20.983Z,21.33
2023-03-03T06:01:47.719Z,21.23
2023-03-03T06:04:14.500Z,17.60
2023-03-03T06:06:41.198Z,18.50
2023-03-03T06:09:07.914Z,18.20
2023-03-03T06:11:34.636Z,20.73
2023-03-03T06:14:01.324Z,18.55
2023-03-03T06:16:28.055Z,17.50
2023-03-03T06:18:54.877Z,19.08
2023-03-03T06:21:21.602Z,17.17
2023-03-03T06:23:48.290Z,19.90
2023-03-03T06:26:14.992Z,18.98
2023-03-03T06:28:41.661Z,18.80
2023-03-03T06:31:08.324Z,19.17
2023-03-03T06:33:35.011Z,18.00
2023-03-03T06:36:03.087Z,15.90
2023-03-03T06:38:31.358Z,18.42
2023-03-03T06:40:58.635Z,14.82
2023-03-03T06:43:25.330Z,14.82
2023-03-03T06:45:52.075Z,16.50
2023-03-03T06:48:18.867Z,17.42
2023-03-03T06:50:45.554Z,15.13
2023-03-03T06:53:14.909Z,14.57
2023-03-03T06:55:44.681Z,12.52
2023-03-03T06:58:14.924Z,15.13
2023-03-03T07:00:44.241Z,14.73
2023-03-03T07:03:18.490Z,15.25
2023-03-03T07:05:45.533Z,17.67
2023-03-03T07:08:14.288Z,13.32
2023-03-03T07:10:41.031Z,16.50
2023-03-03T07:13:26.078Z,15.98
2023-03-03T07:15:54.757Z,15.35
2023-03-03T07:19:01.532Z,17.65
2023-03-03T07:21:34.664Z,13.55
2023-03-03T07:24:15.815Z,15.25
2023-03-03T07:26:42.512Z,14.70
2023-03-03T07:29:25.676Z,19.98
2023-03-03T07:31:55.299Z,18.63
2023-03-03T07:34:26.993Z,18.77
2023-03-03T07:37:05.140Z,19.70
2023-03-03T07:39:40.564Z,18.85
2023-03-03T07:42:38.776Z,17.00
2023-03-03T07:45:23.040Z,17.35
2023-03-03T07:47:49.715Z,16.35
2023-03-03T07:50:20.211Z,15.73
2023-03-03T07:52:59.278Z,16.17
2023-03-03T07:55:38.456Z,16.40
2023-03-03T07:58:12.727Z,15.40
2023-03-03T08:00:45.640Z,15.27
2023-03-03T08:03:19.802Z,13.30
2023-03-03T08:05:51.321Z,13.90
2023-03-03T08:08:33.598Z,12.00
2023-03-03T08:11:01.713Z,15.15
2023-03-03T08:13:29.909Z,12.75
2023-03-03T08:16:00.214Z,12.90
2023-03-03T08:18:36.246Z,14.07
2023-03-03T08:21:13.601Z,14.35
2023-03-03T08:23:40.492Z,13.80
2023-03-03T08:26:07.696Z,13.65
2023-03-03T08:28:34.414Z,11.85
2023-03-03T08:31:16.450Z,12.23
2023-03-03T08:33:47.198Z,13.90
2023-03-03T08:36:14.819Z,13.00
2023-03-03T08:38:41.589Z,12.10
2023-03-03T08:41:08.567Z,12.15
2023-03-03T08:43:35.392Z,12.27
2023-03-03T08:46:05.287Z,11.68
2023-03-03T08:48:33.333Z,11.10
2023-03-03T08:51:00.506Z,11.00
2023-03-03T08:53:28.532Z,12.30
2023-03-03T08:55:55.728Z,12.48
2023-03-03T08:58:33.539Z,9.65
2023-03-03T09:01:01.681Z,12.02
2023-03-03T09:03:28.583Z,9.02
2023-03-03T09:05:55.288Z,9.57
2023-03-03T09:08:23.056Z,9.98
2023-03-03T09:10:49.835Z,10.43
2023-03-03T09:13:20.002Z,11.63
2023-03-03T09:15:47.621Z,9.80
2023-03-03T09:18:35.356Z,12.52
2023-03-03T09:21:02.526Z,9.13
2023-03-03T09:23:41.533Z,8.80
2023-03-03T09:26:30.535Z,10.77
2023-03-03T09:29:15.412Z,13.55
2023-03-03T09:31:47.862Z,9.30
2023-03-03T09:34:24.322Z,9.63
2023-03-03T09:36:52.931Z,7.85
2023-03-03T09:39:22.877Z,8.65
2023-03-03T09:42:15.101Z,8.43
2023-03-03T09:44:56.813Z,8.82
2023-03-03T09:47:38.460Z,8.25
2023-03-03T09:50:17.056Z,9.13
2023-03-03T09:53:01.804Z,10.68
2023-03-03T09:55:28.491Z,9.23
2023-03-03T09:58:29.200Z,9.13
2023-03-03T10:01:33.350Z,9.65
2023-03-03T10:04:18.553Z,8.95
2023-03-03T10:07:12.542Z,9.27
2023-03-03T10:10:07.000Z,7.57
2023-03-03T10:12:57.566Z,8.80
2023-03-03T10:15:40.464Z,9.50
2023-03-03T10:18:28.736Z,8.82
2023-03-03T10:21:08.789Z,9.05
2023-03-03T10:23:59.017Z,10.00
2023-03-03T10:26:44.733Z,7.78
2023-03-03T10:29:39.573Z,9.50
2023-03-03T10:32:31.402Z,8.10
2023-03-03T10:35:13.356Z,8.55
2023-03-03T10:37:46.319Z,9.52
2023-03-03T10:40:22.182Z,8.27
2023-03-03T10:42:59.805Z,6.93
2023-03-03T10:45:26.509Z,7.35
2023-03-03T10:48:09.456Z,8.30
2023-03-03T10:51:20.168Z,9.55
2023-03-03T10:54:11.609Z,7.30
2023-03-03T10:56:53.202Z,11.98
2023-03-03T11:00:02.580Z,7.85
2023-03-03T11:02:54.877Z,5.97
2023-03-03T11:05:42.891Z,8.75
2023-03-03T11:08:20.906Z,7.13
2023-03-03T11:11:10.307Z,7.82
2023-03-03T11:13:42.273Z,7.22
2023-03-03T11:16:49.866Z,7.35
2023-03-03T11:19:31.451Z,5.05
2023-03-03T11:22:17.573Z,9.50
2023-03-03T11:24:44.202Z,6.10
2023-03-03T11:27:31.372Z,6.45
2023-03-03T11:30:07.109Z,8.07
2023-03-03T11:33:08.026Z,7.15
2023-03-03T11:35:44.960Z,7.70
2023-03-03T11:38:39.715Z,8.18
2023-03-03T11:41:18.408Z,5.97
2023-03-03T11:43:50.276Z,5.18
2023-03-03T11:46:22.469Z,5.63
2023-03-03T11:49:12.766Z,5.82
2023-03-03T11:52:02.491Z,5.10
2023-03-03T11:54:38.924Z,6.80
2023-03-03T11:57:32.132Z,5.38
2023-03-03T12:00:12.366Z,7.30
2023-03-03T12:03:02.127Z,9.45
2023-03-03T12:06:06.936Z,5.30
2023-03-03T12:09:10.833Z,4.45
2023-03-03T12:12:07.022Z,9.02
2023-03-03T12:14:50.324Z,5.78
2023-03-03T12:17:26.117Z,5.80
2023-03-03T12:20:20.772Z,3.95
2023-03-03T12:23:16.293Z,6.78
2023-03-03T12:25:46.337Z,4.80
2023-03-03T12:28:19.258Z,4.13
2023-03-03T12:31:10.180Z,7.35
2023-03-03T12:34:23.315Z,6.47
2023-03-03T12:37:25.427Z,3.90
2023-03-03T12:40:12.572Z,6.03
2023-03-03T12:43:12.972Z,4.70
2023-03-03T12:45:56.131Z,6.75
2023-03-03T12:48:41.664Z,4.70
2023-03-03T12:51:44.557Z,3.95
2023-03-03T12:54:36.930Z,5.38
2023-03-03T12:57:34.777Z,4.43
2023-03-03T13:00:24.423Z,4.03
2023-03-03T13:03:32.093Z,3.38
2023-03-03T13:06:17.821Z,4.72
2023-03-03T13:08:55.902Z,3.55
2023-03-03T13:11:45.738Z,3.85
2023-03-03T13:14:36.378Z,4.60
2023-03-03T13:17:09.008Z,5.93
2023-03-03T13:20:00.953Z,5.28
2023-03-03T13:22:35.038Z,6.07
2023-03-03T13:25:16.541Z,5.55
2023-03-03T13:27:47.813Z,3.55
2023-03-03T13:30:23.990Z,5.57
2023-03-03T13:33:11.553Z,3.22
2023-03-03T13:35:54.073Z,4.05
2023-03-03T13:38:25.417Z,4.80
2023-03-03T13:41:07.200Z,3.75
2023-03-03T13:44:11.724Z,2.88
2023-03-03T13:46:45.124Z,6.13
2023-03-03T13:49:40.512Z,6.22
2023-03-03T13:52:11.306Z,6.78
2023-03-03T13:54:53.257Z,4.18
2023-03-03T13:58:10.281Z,6.65
2023-03-03T14:00:48.985Z,4.53
2023-03-03T14:03:23.153Z,5.68
2023-03-03T14:06:17.327Z,4.72
2023-03-03T14:09:15.365Z,5.85
2023-03-03T14:12:03.439Z,7.63
2023-03-03T14:14:47.056Z,4.85
2023-03-03T14:17:46.605Z,5.82
2023-03-03T14:20:13.621Z,4.13
2023-03-03T14:22:54.672Z,6.07
2023-03-03T14:25:21.497Z,4.65
2023-03-03T14:27:48.153Z,5.22
2023-03-03T14:30:35.006Z,6.15
2023-03-03T14:33:07.779Z,5.53
2023-03-03T14:35:39.176Z,4.05
2023-03-03T14:38:08.959Z,2.25
2023-03-03T14:40:38.887Z,6.65
2023-03-03T14:43:20.396Z,3.88
2023-03-03T14:45:47.239Z,4.05
2023-03-03T14:48:13.984Z,2.53
2023-03-03T14:50:43.006Z,4.25
2023-03-03T14:53:18.832Z,5.85
2023-03-03T14:55:51.313Z,3.75
2023-03-03T14:58:39.303Z,2.50
2023-03-03T15:01:26.683Z,3.97
2023-03-03T15:04:24.118Z,4.47
2023-03-03T15:06:55.259Z,2.80
2023-03-03T15:09:43.286Z,3.78
2023-03-03T15:12:25.972Z,2.72
2023-03-03T15:15:05.396Z,2.67
2023-03-03T15:17:59.661Z,3.13
2023-03-03T15:20:41.352Z,3.88
2023-03-03T15:23:39.917Z,4.25
2023-03-03T15:26:32.768Z,2.75
2023-03-03T15:29:02.503Z,5.10
2023-03-03T15:31:55.773Z,2.30
2023-03-03T15:34:34.132Z,4.60
2023-03-03T15:37:25.462Z,3.40
2023-03-03T15:40:10.750Z,3.35
2023-03-03T15:42:49.234Z,4.93
2023-03-03T15:45:52.866Z,4.47
2023-03-03T15:48:25.706Z,5.68
2023-03-03T15:51:14.590Z,8.30
2023-03-03T15:54:00.103Z,3.80
2023-03-03T15:56:48.905Z,3.75
2023-03-03T15:59:46.940Z,1.92
2023-03-03T16:02:23.109Z,3.60
2023-03-03T16:05:05.922Z,5.20
2023-03-03T16:07:53.524Z,8.93
2023-03-03T16:10:37.403Z,3.22
2023-03-03T16:13:25.461Z,6.40
2023-03-03T16:16:13.905Z,2.80
2023-03-03T16:19:18.276Z,3.90
2023-03-03T16:21:53.850Z,4.55
2023-03-03T16:24:42.148Z,4.93
2023-03-03T16:27:21.728Z,4.68
2023-03-03T16:29:57.730Z,3.97
2023-03-03T16:32:40.192Z,4.00
2023-03-03T16:35:26.168Z,5.00
2023-03-03T16:38:06.504Z,4.47
2023-03-03T16:40:44.858Z,3.63
2023-03-03T16:43:43.250Z,4.85
2023-03-03T16:46:30.191Z,1.50
2023-03-03T16:49:30.233Z,4.60
2023-03-03T16:52:07.429Z,9.48
2023-03-03T16:54:37.434Z,4.85
2023-03-03T16:57:25.664Z,3.20
2023-03-03T17:00:05.028Z,4.88
2023-03-03T17:03:20.420Z,6.63
2023-03-03T17:05:53.341Z,7.97
2023-03-03T17:08:44.841Z,9.52
2023-03-03T17:11:28.397Z,6.30
2023-03-03T17:14:16.274Z,2.97
2023-03-03T17:17:08.971Z,5.65
2023-03-03T17:19:39.839Z,4.75
2023-03-03T17:22:19.005Z,6.53
2023-03-03T17:25:07.945Z,11.95
2023-03-03T17:27:55.956Z,5.45
2023-03-03T17:30:42.165Z,6.82
2023-03-03T17:33:23.762Z,4.25
2023-03-03T17:36:12.361Z,9.80
2023-03-03T17:39:00.757Z,5.82
2023-03-03T17:41:45.625Z,13.88
2023-03-03T17:44:39.011Z,23.92
2023-03-03T17:47:24.015Z,7.15
2023-03-03T17:50:02.621Z,5.50
2023-03-03T17:52:40.232Z,6.70
2023-03-03T17:55:25.193Z,4.43
2023-03-03T17:58:05.277Z,6.32
2023-03-03T18:00:38.130Z,4.97
2023-03-03T18:03:20.076Z,5.65
2023-03-03T18:06:11.410Z,8.63
2023-03-03T18:09:08.225Z,8.32
2023-03-03T18:11:45.427Z,6.43
2023-03-03T18:14:37.063Z,11.80
2023-03-03T18:17:35.924Z,11.45
2023-03-03T18:20:17.774Z,9.80
2023-03-03T18:22:47.304Z,10.70
2023-03-03T18:25:23.225Z,8.97
2023-03-03T18:28:03.284Z,13.90
2023-03-03T18:30:49.692Z,8.50
2023-03-03T18:33:31.648Z,7.35
2023-03-03T18:36:35.194Z,10.48
2023-03-03T18:39:03.046Z,9.18
2023-03-03T18:42:08.547Z,15.57
2023-03-03T18:44:35.642Z,13.90
2023-03-03T18:47:03.158Z,14.98
2023-03-03T18:50:07.727Z,11.95
2023-03-03T18:52:36.360Z,12.05
2023-03-03T18:55:05.288Z,11.60
2023-03-03T18:57:32.054Z,13.55
2023-03-03T19:00:24.833Z,19.10
2023-03-03T19:02:58.454Z,12.57
2023-03-03T19:05:34.260Z,9.77
2023-03-03T19:08:23.339Z,12.05
2023-03-03T19:10:59.730Z,17.90
2023-03-03T19:13:32.615Z,12.30
2023-03-03T19:16:21.185Z,13.57
2023-03-03T19:18:50.732Z,13.27
2023-03-03T19:21:25.369Z,13.07
2023-03-03T19:24:04.438Z,7.35
2023-03-03T19:26:31.117Z,13.25
2023-03-03T19:29:17.912Z,13.38
2023-03-03T19:32:30.767Z,14.02
2023-03-03T19:35:24.539Z,16.70
2023-03-03T19:38:14.754Z,14.57
2023-03-03T19:40:59.934Z,19.92
2023-03-03T19:44:01.016Z,11.10
2023-03-03T19:46:37.380Z,11.88
2023-03-03T19:49:22.106Z,13.05
2023-03-03T19:52:07.336Z,15.00
2023-03-03T19:54:37.323Z,12.45
2023-03-03T19:57:11.315Z,13.75
2023-03-03T19:59:59.606Z,14.30
2023-03-03T20:02:47.577Z,18.10
2023-03-03T20:05:43.880Z,26.83
2023-03-03T20:08:21.388Z,10.60
2023-03-03T20:11:01.182Z,19.25
2023-03-03T20:13:54.905Z,17.23
2023-03-03T20:16:41.453Z,17.40
2023-03-03T20:19:11.016Z,20.95
2023-03-03T20:21:53.348Z,16.05
2023-03-03T20:24:59.159Z,16.63
2023-03-03T20:27:52.385Z,13.35
2023-03-03T20:30:28.756Z,14.40
2023-03-03T20:33:16.493Z,17.20
2023-03-03T20:36:05.216Z,13.18
2023-03-03T20:39:12.364Z,14.27
2023-03-03T20:42:16.996Z,13.23
2023-03-03T20:45:21.574Z,12.45
2023-03-03T20:47:48.295Z,16.52
2023-03-03T20:50:20.943Z,19.83
2023-03-03T20:53:09.020Z,20.90
2023-03-03T20:56:03.742Z,17.75
2023-03-03T20:58:52.335Z,15.25
2023-03-03T21:01:44.962Z,17.48
2023-03-03T21:04:27.593Z,41.20
2023-03-03T21:06:54.607Z,15.48
2023-03-03T21:09:38.967Z,20.40
2023-03-03T21:12:30.240Z,13.20
2023-03-03T21:15:07.236Z,11.82
2023-03-03T21:17:33.955Z,15.07
2023-03-03T21:20:22.602Z,16.25
2023-03-03T21:22:49.598Z,17.27
2023-03-03T21:25:41.466Z,17.45
2023-03-03T21:28:28.495Z,13.27
2023-03-03T21:31:16.949Z,17.73
2023-03-03T21:33:51.119Z,20.10
2023-03-03T21:36:43.616Z,18.95
2023-03-03T21:39:27.733Z,17.05
2023-03-03T21:42:20.636Z,13.88
2023-03-03T21:44:51.840Z,18.35
2023-03-03T21:47:23.892Z,15.82
2023-03-03T21:49:52.256Z,14.35
2023-03-03T21:52:21.443Z,10.10
2023-03-03T21:54:50.486Z,16.10
2023-03-03T21:57:17.592Z,12.45
2023-03-03T21:59:44.421Z,13.63
2023-03-03T22:02:11.138Z,10.60
2023-03-03T22:04:41.170Z,19.75
2023-03-03T22:07:08.841Z,13.05
2023-03-03T22:09:36.437Z,14.55
2023-03-03T22:12:03.796Z,15.18
2023-03-03T22:14:30.562Z,14.93
2023-03-03T22:16:57.550Z,13.27
2023-03-03T22:19:25.011Z,11.65
2023-03-03T22:21:51.762Z,10.52
2023-03-03T22:24:19.320Z,14.20
2023-03-03T22:26:46.078Z,15.60
2023-03-03T22:29:13.017Z,18.75
2023-03-03T22:31:39.856Z,13.18
2023-03-03T22:34:06.654Z,18.40
2023-03-03T22:36:33.552Z,14.20
2023-03-03T22:39:00.972Z,15.90
2023-03-03T22:41:27.739Z,14.27
2023-03-03T22:43:54.485Z,16.42
2023-03-03T22:46:21.219Z,12.93
2023-03-03T22:48:48.004Z,21.50
2023-03-03T22:51:15.029Z,12.48
2023-03-03T22:53:41.793Z,16.80
2023-03-03T22:56:08.528Z,14.73
2023-03-03T22:58:35.284Z,13.98
2023-03-03T23:01:02.809Z,12.82
2023-03-03T23:03:32.226Z,15.20
2023-03-03T23:05:59.340Z,13.75
2023-03-03T23:08:27.499Z,18.58
2023-03-03T23:10:54.179Z,13.40
2023-03-03T23:13:21.076Z,14.77
2023-03-03T23:15:47.793Z,8.88
2023-03-03T23:18:14.494Z,13.07
2023-03-03T23:20:45.750Z,12.25
2023-03-03T23:23:12.807Z,15.48
2023-03-03T23:25:39.652Z,12.25
2023-03-03T23:28:06.490Z,14.00
2023-03-03T23:30:33.153Z,22.25
2023-03-03T23:32:59.885Z,14.00
2023-03-03T23:35:26.644Z,17.92
2023-03-03T23:37:53.432Z,12.30
2023-03-03T23:40:20.165Z,18.02
2023-03-03T23:42:46.909Z,11.95
2023-03-03T23:45:14.138Z,14.27
2023-03-03T23:47:41.528Z,12.77
2023-03-03T23:50:11.367Z,12.85
2023-03-03T23:52:38.082Z,13.38
2023-03-03T23:55:06.097Z,12.32
2023-03-03T23:57:33.207Z,13.85
2023-03-03T23:59:59.878Z,11.75
